Huvudsida
METAR-TAF:

METAR-TAF

Flygplatser :

Oljeplattform

Norne Fpso, Norge

latitud: 66-01-48N, longitud: 008-04-48E, höjd: 10 m

Aktuellt väderrapport

Denna rapport gjordes för 15 minuter sedan, klockan 03:50 UTC
Vind 24 kt från nord
Temperatur 3°C
Fuktighet 60%
Tryck 995 hPa
Sikt 10 km eller mer

METAR: ENNE 190350Z AUTO 01024KT 9999NDV FEW038/// 03/M04 Q0995 W///S5

Tid: 05:05 (04:05 UTC)

Väderprognos

Denna rapport gjordes för 14 timmar och 5 minuter sedan, klockan 14:00 UTC
Prognos gäller från 18 kl. 15 UTC till 18 kl. 18 UTC
Vind 22 kt från nordost
Sikt 10 km eller mer
Få moln på en höjd av 1500 ft, Högtornande cumulus.
Brutna moln på en höjd av 2500 ft
Sannolikhet 40% :
Temporärt
från 18 kl. 15 UTC till 18 kl. 18 UTC
Sikt: 3000 m
Brutna moln på en höjd av 1200 ft, Cumulonimbus.
regnskurar, snö

TAF: ENNE 181400Z 1815/1818 04022KT 9999 FEW015TCU BKN025 PROB40 TEMPO 1815/1818 3000 SHRASN BKN012CB

Aktuella väderrapporter och prognoser från 4000 flygplatser (METAR- och TAF-rapporter).

De tillgängliga stationerna syns som gula och röda prickar på kartan.

För musen över prickarna för att se namnen på stationerna.

Klicka sedan för att få väderrapporter och prognoser.

För att ändra kartan: Klicka på de gröna knapparna med ett svart kors på för att zooma in; den gröna knappen med ett streck på för att zooma ut; eller på de gröna pilarna för angränsande kartor.


METAR-TAF: